Terminal Aerodrome Forecast
Issued by NWS

Home | Current Version | Previous Version | Text Only | Print | Product List | Glossary On
Versions: 1 2 3 4 5 6 7 8 9 10 11 12 13 14 15 16
715
FTUS44 KLZK 221618 AAA
TAFBPK
TAF AMD
KBPK 221618Z 2216/2312 36008G15KT P6SM -SHRA SCT008 BKN030 OVC050
      TEMPO 2216/2220 1SM RA BR BKN008 OVC015
     FM222100 34008G16KT P6SM VCSH BKN012 OVC025
     FM230600 32008KT 5SM BR BKN008 OVC015=

USA.gov is the U.S. government's official web portal to all federal, state and local government web resources and services.